createdAt,value
2018-03-04T00:00:33.962Z,69.40
2018-03-04T00:03:01.464Z,69.65
2018-03-04T00:05:29.127Z,76.70
2018-03-04T00:07:56.676Z,81.12
2018-03-04T00:10:24.263Z,70.10
2018-03-04T00:12:51.820Z,76.50
2018-03-04T00:15:19.375Z,66.85
2018-03-04T00:17:46.902Z,68.10
2018-03-04T00:20:14.516Z,77.53
2018-03-04T00:22:42.127Z,76.43
2018-03-04T00:25:09.827Z,72.45
2018-03-04T00:27:37.482Z,65.43
2018-03-04T00:30:05.102Z,68.07
2018-03-04T00:32:40.772Z,63.35
2018-03-04T00:35:08.280Z,66.55
2018-03-04T00:37:38.223Z,65.28
2018-03-04T00:40:05.848Z,63.35
2018-03-04T00:42:33.396Z,61.65
2018-03-04T00:45:00.936Z,55.35
2018-03-04T00:47:28.483Z,63.45
2018-03-04T00:49:56.082Z,64.18
2018-03-04T00:52:23.847Z,63.80
2018-03-04T00:54:51.421Z,57.08
2018-03-04T00:57:19.039Z,57.22
2018-03-04T00:59:46.614Z,60.20
2018-03-04T01:02:14.143Z,64.32
2018-03-04T01:04:41.724Z,56.55
2018-03-04T01:07:09.314Z,61.17
2018-03-04T01:09:36.874Z,54.63
2018-03-04T01:12:04.448Z,50.15
2018-03-04T01:14:32.893Z,61.95
2018-03-04T01:17:00.435Z,52.45
2018-03-04T01:19:28.113Z,58.83
2018-03-04T01:21:55.681Z,60.00
2018-03-04T01:24:23.269Z,55.08
2018-03-04T01:26:50.797Z,63.45
2018-03-04T01:29:18.327Z,57.10
2018-03-04T01:31:46.639Z,60.00
2018-03-04T01:34:14.238Z,57.35
2018-03-04T01:36:42.576Z,64.30
2018-03-04T01:39:10.094Z,57.25
2018-03-04T01:41:37.657Z,63.87
2018-03-04T01:44:05.252Z,58.30
2018-03-04T01:46:32.807Z,58.92
2018-03-04T01:49:00.343Z,57.00
2018-03-04T01:54:27.114Z,60.10
2018-03-04T01:56:54.893Z,62.47
2018-03-04T01:59:22.501Z,64.78
2018-03-04T02:01:50.087Z,57.72
2018-03-04T02:04:17.673Z,56.05
2018-03-04T02:06:45.265Z,60.28
2018-03-04T02:09:13.631Z,63.75
2018-03-04T02:11:41.204Z,55.72
2018-03-04T02:14:08.769Z,59.65
2018-03-04T02:16:37.116Z,62.33
2018-03-04T02:19:04.635Z,66.18
2018-03-04T02:21:32.235Z,66.00
2018-03-04T02:23:59.820Z,64.28
2018-03-04T02:26:27.371Z,64.70
2018-03-04T02:28:54.914Z,61.35
2018-03-04T02:31:22.506Z,71.50
2018-03-04T02:33:50.952Z,61.67
2018-03-04T02:36:18.488Z,59.88
2018-03-04T02:38:46.041Z,58.83
2018-03-04T02:41:14.453Z,57.95
2018-03-04T02:43:42.084Z,61.05
2018-03-04T02:46:09.638Z,64.07
2018-03-04T02:48:37.264Z,56.90
2018-03-04T02:51:04.954Z,61.72
2018-03-04T02:53:32.486Z,57.67
2018-03-04T02:56:00.033Z,48.87
2018-03-04T02:58:27.576Z,59.88
2018-03-04T03:00:55.249Z,58.03
2018-03-04T03:03:22.780Z,60.08
2018-03-04T03:05:50.317Z,54.03
2018-03-04T03:08:18.833Z,50.50
2018-03-04T03:10:46.350Z,59.33
2018-03-04T03:13:14.663Z,61.22
2018-03-04T03:15:42.265Z,52.58
2018-03-04T03:18:10.710Z,54.00
2018-03-04T03:20:38.296Z,60.15
2018-03-04T03:23:07.582Z,56.67
2018-03-04T03:25:35.160Z,52.60
2018-03-04T03:28:02.790Z,56.60
2018-03-04T03:30:30.324Z,51.88
2018-03-04T03:32:57.911Z,51.72
2018-03-04T03:35:26.261Z,49.15
2018-03-04T03:37:53.884Z,44.42
2018-03-04T03:40:22.266Z,49.33
2018-03-04T03:42:50.090Z,54.10
2018-03-04T03:45:17.648Z,52.58
2018-03-04T03:47:46.035Z,46.72
2018-03-04T03:50:13.579Z,55.80
2018-03-04T03:52:41.294Z,48.17
2018-03-04T03:55:09.872Z,44.75
2018-03-04T03:57:37.391Z,47.65
2018-03-04T04:00:05.013Z,43.33
2018-03-04T04:02:32.605Z,56.53
2018-03-04T04:05:00.175Z,52.08
2018-03-04T04:07:28.864Z,45.33
2018-03-04T04:09:56.459Z,46.65
2018-03-04T04:12:24.080Z,51.60
2018-03-04T04:14:51.708Z,44.90
2018-03-04T04:17:19.396Z,47.97
2018-03-04T04:19:46.984Z,47.92
2018-03-04T04:22:14.555Z,53.85
2018-03-04T04:24:42.206Z,42.30
2018-03-04T04:27:09.889Z,45.03
2018-03-04T04:29:38.249Z,42.62
2018-03-04T04:32:06.031Z,46.83
2018-03-04T04:34:33.594Z,40.55
2018-03-04T04:37:01.210Z,45.75
2018-03-04T04:39:28.808Z,40.42
2018-03-04T04:41:56.341Z,40.45
2018-03-04T04:44:24.002Z,43.53
2018-03-04T04:46:52.546Z,44.55
2018-03-04T04:49:20.883Z,48.28
2018-03-04T04:51:48.606Z,38.80
2018-03-04T04:54:16.964Z,37.17
2018-03-04T04:56:44.516Z,46.50
2018-03-04T04:59:12.070Z,41.72
2018-03-04T05:01:39.742Z,38.83
2018-03-04T05:04:07.394Z,42.70
2018-03-04T05:06:34.941Z,37.05
2018-03-04T05:09:03.307Z,37.67
2018-03-04T05:11:30.861Z,44.03
2018-03-04T05:13:58.449Z,48.08
2018-03-04T05:16:26.832Z,39.90
2018-03-04T05:18:55.249Z,40.35
2018-03-04T05:21:22.805Z,40.78
2018-03-04T05:23:50.423Z,40.35
2018-03-04T05:26:18.023Z,42.22
2018-03-04T05:28:45.671Z,40.25
2018-03-04T05:31:13.321Z,38.58
2018-03-04T05:33:40.981Z,42.22
2018-03-04T05:36:08.604Z,37.13
2018-03-04T05:38:36.234Z,37.67
2018-03-04T05:41:04.611Z,39.35
2018-03-04T05:43:32.266Z,35.95
2018-03-04T05:45:59.862Z,35.30
2018-03-04T05:48:27.458Z,45.28
2018-03-04T05:50:55.841Z,31.45
2018-03-04T05:53:23.470Z,35.92
2018-03-04T05:55:51.017Z,33.55
2018-03-04T05:58:19.374Z,32.22
2018-03-04T06:00:46.993Z,26.45
2018-03-04T06:03:14.555Z,32.33
2018-03-04T06:05:42.939Z,35.15
2018-03-04T06:08:10.510Z,36.95
2018-03-04T06:10:38.136Z,29.00
2018-03-04T06:13:05.747Z,29.30
2018-03-04T06:15:34.153Z,28.55
2018-03-04T06:18:01.774Z,33.15
2018-03-04T06:20:29.331Z,27.67
2018-03-04T06:22:58.387Z,30.05
2018-03-04T06:25:25.923Z,37.47
2018-03-04T06:27:53.477Z,31.42
2018-03-04T06:30:21.196Z,29.45
2018-03-04T06:32:48.694Z,32.47
2018-03-04T06:35:16.998Z,29.60
2018-03-04T06:37:44.902Z,23.08
2018-03-04T06:40:12.576Z,32.83
2018-03-04T06:42:40.140Z,27.77
2018-03-04T06:45:08.548Z,24.00
2018-03-04T06:47:36.111Z,26.95
2018-03-04T06:50:03.717Z,31.95
2018-03-04T06:52:31.288Z,27.13
2018-03-04T06:54:58.862Z,25.80
2018-03-04T06:57:27.349Z,27.00
2018-03-04T06:59:54.934Z,23.25
2018-03-04T07:02:23.351Z,37.55
2018-03-04T07:04:51.115Z,30.58
2018-03-04T07:07:19.458Z,24.70
2018-03-04T07:09:48.084Z,30.85
2018-03-04T07:12:15.643Z,25.80
2018-03-04T07:14:43.248Z,26.08
2018-03-04T07:17:10.893Z,30.42
2018-03-04T07:19:38.456Z,21.40
2018-03-04T07:22:06.119Z,29.30
2018-03-04T07:24:34.501Z,24.02
2018-03-04T07:27:02.167Z,24.85
2018-03-04T07:29:30.652Z,22.62
2018-03-04T07:31:58.245Z,18.20
2018-03-04T07:34:26.445Z,24.00
2018-03-04T07:36:54.069Z,22.25
2018-03-04T07:39:21.963Z,19.48
2018-03-04T07:41:49.896Z,15.80
2018-03-04T07:44:18.497Z,19.30
2018-03-04T07:46:47.200Z,18.50
2018-03-04T07:49:15.046Z,15.25
2018-03-04T07:51:42.671Z,13.82
2018-03-04T07:54:10.406Z,16.00
2018-03-04T07:56:38.038Z,22.02
2018-03-04T07:59:05.592Z,18.30
2018-03-04T08:01:33.396Z,12.50
2018-03-04T08:04:00.972Z,11.95
2018-03-04T08:06:28.756Z,15.45
2018-03-04T08:09:08.394Z,16.90
2018-03-04T08:11:37.806Z,16.52
2018-03-04T08:14:11.926Z,14.68
2018-03-04T08:16:40.152Z,12.50
2018-03-04T08:19:08.423Z,15.48
2018-03-04T08:21:36.184Z,13.70
2018-03-04T08:24:03.776Z,13.90
2018-03-04T08:26:43.486Z,11.12
2018-03-04T08:29:11.057Z,10.75
2018-03-04T08:31:38.838Z,11.05
2018-03-04T08:34:07.372Z,10.55
2018-03-04T08:36:35.689Z,10.57
2018-03-04T08:39:03.337Z,10.93
2018-03-04T08:41:32.661Z,12.80
2018-03-04T08:44:00.215Z,14.45
2018-03-04T08:46:27.864Z,12.48
2018-03-04T08:48:55.450Z,11.88
2018-03-04T08:51:23.013Z,7.05
2018-03-04T08:53:51.482Z,9.60
2018-03-04T08:56:19.345Z,12.07
2018-03-04T08:58:50.933Z,8.80
2018-03-04T09:01:18.670Z,9.60
2018-03-04T09:03:46.570Z,9.83
2018-03-04T09:06:20.043Z,8.00
2018-03-04T09:08:52.471Z,9.60
2018-03-04T09:11:24.039Z,9.00
2018-03-04T09:13:55.010Z,6.37
2018-03-04T09:16:25.223Z,8.93
2018-03-04T09:18:57.860Z,8.33
2018-03-04T09:21:27.420Z,6.47
2018-03-04T09:24:02.420Z,13.03
2018-03-04T09:26:31.173Z,7.70
2018-03-04T09:29:01.088Z,10.30
2018-03-04T09:31:29.327Z,7.00
2018-03-04T09:33:57.805Z,8.00
2018-03-04T09:36:25.665Z,9.17
2018-03-04T09:38:56.461Z,10.63
2018-03-04T09:41:24.967Z,11.30
2018-03-04T09:43:53.214Z,6.03
2018-03-04T09:46:21.074Z,7.03
2018-03-04T09:48:51.222Z,8.97
2018-03-04T09:51:22.382Z,7.00
2018-03-04T09:53:49.999Z,6.33
2018-03-04T09:56:17.625Z,8.13
2018-03-04T09:58:45.371Z,6.10
2018-03-04T10:01:13.102Z,5.50
2018-03-04T10:03:40.642Z,6.00
2018-03-04T10:06:09.042Z,5.30
2018-03-04T10:08:36.686Z,6.10
2018-03-04T10:11:05.163Z,8.50
2018-03-04T10:13:33.550Z,4.80
2018-03-04T10:16:01.929Z,6.47
2018-03-04T10:18:30.237Z,6.40
2018-03-04T10:20:57.777Z,5.27
2018-03-04T10:23:25.330Z,8.90
2018-03-04T10:25:53.603Z,5.10
2018-03-04T10:28:21.131Z,6.20
2018-03-04T10:30:48.679Z,8.10
2018-03-04T10:33:17.089Z,9.13
2018-03-04T10:35:44.687Z,11.83
2018-03-04T10:38:12.352Z,7.60
2018-03-04T10:40:40.034Z,6.67
2018-03-04T10:43:07.570Z,8.47
2018-03-04T10:45:35.135Z,6.87
2018-03-04T10:48:02.737Z,7.93
2018-03-04T10:50:30.355Z,6.57
2018-03-04T10:52:57.949Z,8.80
2018-03-04T10:55:25.595Z,9.00
2018-03-04T10:57:53.211Z,6.30
2018-03-04T11:00:24.929Z,7.50
2018-03-04T11:02:52.479Z,6.30
2018-03-04T11:05:21.594Z,7.67
2018-03-04T11:07:49.147Z,5.97
2018-03-04T11:10:16.774Z,6.60
2018-03-04T11:12:44.312Z,8.03
2018-03-04T11:15:11.904Z,6.83
2018-03-04T11:17:39.477Z,7.83
2018-03-04T11:20:07.207Z,8.20
2018-03-04T11:22:34.760Z,6.40
2018-03-04T11:25:03.536Z,10.40
2018-03-04T11:27:31.888Z,7.13
2018-03-04T11:30:00.869Z,6.67
2018-03-04T11:32:31.094Z,6.77
2018-03-04T11:35:01.002Z,9.27
2018-03-04T11:37:28.567Z,6.90
2018-03-04T11:39:56.538Z,7.10
2018-03-04T11:42:24.132Z,7.50
2018-03-04T11:44:52.475Z,7.50
2018-03-04T11:47:20.026Z,7.23
2018-03-04T11:49:47.713Z,6.73
2018-03-04T11:52:15.295Z,6.87
2018-03-04T11:54:42.922Z,7.20
2018-03-04T11:57:11.236Z,9.40
2018-03-04T11:59:38.801Z,9.97
2018-03-04T12:02:06.356Z,11.80
2018-03-04T12:04:33.896Z,11.53
2018-03-04T12:07:01.743Z,10.77
2018-03-04T12:09:29.346Z,10.00
2018-03-04T12:11:57.004Z,11.30
2018-03-04T12:14:24.595Z,9.60
2018-03-04T12:16:52.216Z,10.87
2018-03-04T12:19:19.868Z,8.47
2018-03-04T12:21:47.459Z,7.23
2018-03-04T12:24:15.797Z,7.30
2018-03-04T12:26:44.177Z,6.90
2018-03-04T12:29:11.914Z,7.10
2018-03-04T12:31:39.481Z,7.07
2018-03-04T12:34:07.077Z,10.40
2018-03-04T12:36:34.781Z,6.33
2018-03-04T12:39:02.415Z,7.20
2018-03-04T12:41:29.976Z,6.70
2018-03-04T12:43:57.558Z,10.93
2018-03-04T12:46:25.155Z,6.20
2018-03-04T12:48:52.914Z,5.90
2018-03-04T12:51:20.425Z,8.03
2018-03-04T12:53:48.026Z,8.60
2018-03-04T12:56:15.550Z,6.50
2018-03-04T12:58:43.160Z,5.67
2018-03-04T13:01:11.653Z,9.50
2018-03-04T13:03:39.263Z,7.33
2018-03-04T13:06:07.024Z,6.90
2018-03-04T13:08:34.564Z,4.93
2018-03-04T13:11:02.146Z,8.13
2018-03-04T13:13:30.017Z,5.30
2018-03-04T13:15:57.615Z,6.40
2018-03-04T13:18:25.283Z,7.43
2018-03-04T13:20:53.827Z,9.65
2018-03-04T13:23:21.526Z,5.37
2018-03-04T13:25:49.293Z,6.80
2018-03-04T13:28:17.685Z,5.97
2018-03-04T13:30:45.432Z,5.07
2018-03-04T13:33:13.255Z,5.28
2018-03-04T13:35:42.466Z,7.87
2018-03-04T13:38:10.663Z,11.40
2018-03-04T13:40:38.322Z,8.50
2018-03-04T13:43:05.956Z,5.37
2018-03-04T13:45:33.547Z,4.93
2018-03-04T13:48:01.257Z,7.28
2018-03-04T13:50:28.837Z,4.93
2018-03-04T13:52:56.612Z,7.25
2018-03-04T13:55:24.179Z,8.05
2018-03-04T13:57:51.795Z,7.72
2018-03-04T14:00:19.324Z,5.62
2018-03-04T14:02:46.955Z,7.20
2018-03-04T14:05:14.536Z,6.45
2018-03-04T14:07:42.234Z,5.62
2018-03-04T14:10:10.142Z,6.65
2018-03-04T14:12:40.090Z,6.35
2018-03-04T14:15:07.682Z,7.15
2018-03-04T14:17:35.259Z,6.12
2018-03-04T14:20:02.939Z,4.93
2018-03-04T14:22:30.513Z,7.90
2018-03-04T14:24:59.678Z,7.60
2018-03-04T14:27:27.263Z,9.70
2018-03-04T14:29:54.786Z,7.85
2018-03-04T14:32:22.335Z,5.40
2018-03-04T14:34:57.964Z,5.53
2018-03-04T14:37:30.555Z,6.82
2018-03-04T14:39:59.000Z,6.03
2018-03-04T14:42:29.206Z,4.60
2018-03-04T14:44:57.038Z,6.80
2018-03-04T14:47:24.619Z,6.18
2018-03-04T14:49:53.214Z,6.28
2018-03-04T14:52:23.266Z,4.78
2018-03-04T14:54:51.302Z,5.57
2018-03-04T14:57:19.338Z,5.62
2018-03-04T14:59:47.837Z,7.68
2018-03-04T15:02:15.568Z,4.53
2018-03-04T15:04:43.247Z,6.78
2018-03-04T15:07:10.824Z,7.47
2018-03-04T15:09:38.466Z,5.57
2018-03-04T15:12:06.034Z,9.60
2018-03-04T15:14:33.607Z,5.75
2018-03-04T15:17:01.225Z,7.30
2018-03-04T15:19:28.891Z,4.87
2018-03-04T15:21:56.488Z,6.75
2018-03-04T15:24:24.120Z,8.80
2018-03-04T15:26:52.431Z,4.80
2018-03-04T15:29:20.036Z,2.85
2018-03-04T15:31:48.400Z,3.03
2018-03-04T15:34:15.994Z,3.53
2018-03-04T15:36:43.586Z,2.90
2018-03-04T15:39:26.747Z,2.30
2018-03-04T15:41:54.311Z,2.28
2018-03-04T15:44:22.702Z,7.07
2018-03-04T15:47:02.146Z,3.45
2018-03-04T15:49:30.452Z,3.35
2018-03-04T15:52:00.152Z,3.05
2018-03-04T15:54:34.950Z,3.40
2018-03-04T15:57:04.413Z,3.20
2018-03-04T15:59:32.017Z,4.05
2018-03-04T16:02:14.570Z,3.12
2018-03-04T16:04:57.853Z,5.20
2018-03-04T16:07:25.444Z,4.85
2018-03-04T16:09:55.035Z,6.55
2018-03-04T16:12:32.752Z,5.47
2018-03-04T16:15:02.239Z,7.00
2018-03-04T16:20:31.532Z,7.07
2018-03-04T16:23:00.455Z,7.40
2018-03-04T16:25:41.799Z,8.45
2018-03-04T16:28:14.872Z,7.53
2018-03-04T16:30:42.432Z,9.13
2018-03-04T16:33:09.951Z,9.85
2018-03-04T16:35:37.503Z,8.82
2018-03-04T16:38:05.879Z,9.63
2018-03-04T16:40:34.259Z,12.77
2018-03-04T16:43:01.853Z,10.45
2018-03-04T16:45:29.428Z,14.50
2018-03-04T16:47:57.094Z,15.15
2018-03-04T16:50:24.600Z,14.13
2018-03-04T16:52:53.020Z,13.60
2018-03-04T16:55:20.661Z,10.63
2018-03-04T16:57:48.338Z,12.20
2018-03-04T17:00:16.128Z,11.32
2018-03-04T17:02:43.650Z,13.62
2018-03-04T17:05:11.273Z,15.55
2018-03-04T17:07:39.010Z,12.73
2018-03-04T17:10:06.655Z,17.75
2018-03-04T17:12:34.191Z,14.82
2018-03-04T17:15:01.781Z,16.83
2018-03-04T17:17:29.413Z,16.48
2018-03-04T17:19:56.926Z,16.92
2018-03-04T17:22:24.488Z,21.55
2018-03-04T17:24:52.018Z,17.58
2018-03-04T17:27:19.530Z,18.42
2018-03-04T17:29:47.823Z,17.25
2018-03-04T17:32:17.634Z,21.08
2018-03-04T17:34:45.179Z,18.08
2018-03-04T17:37:12.744Z,21.00
2018-03-04T17:39:41.010Z,22.08
2018-03-04T17:42:09.404Z,22.17
2018-03-04T17:44:37.748Z,26.90
2018-03-04T17:47:05.287Z,17.92
2018-03-04T17:49:32.824Z,21.65
2018-03-04T17:52:00.341Z,24.12
2018-03-04T17:54:27.951Z,26.10
2018-03-04T17:56:55.484Z,25.98
2018-03-04T17:59:23.045Z,22.85
2018-03-04T18:01:50.592Z,31.17
2018-03-04T18:04:18.228Z,30.92
2018-03-04T18:06:45.829Z,29.50
2018-03-04T18:09:13.426Z,29.35
2018-03-04T18:11:41.097Z,33.20
2018-03-04T18:14:08.587Z,32.40
2018-03-04T18:16:36.875Z,33.22
2018-03-04T18:19:05.243Z,32.70
2018-03-04T18:21:32.983Z,33.63
2018-03-04T18:24:00.705Z,34.33
2018-03-04T18:26:28.394Z,30.48
2018-03-04T18:28:56.816Z,33.25
2018-03-04T18:31:25.277Z,30.85
2018-03-04T18:33:52.825Z,26.40
2018-03-04T18:36:22.817Z,32.42
2018-03-04T18:38:51.183Z,29.17
2018-03-04T18:41:18.780Z,28.25
2018-03-04T18:43:46.454Z,33.65
2018-03-04T18:46:13.974Z,23.08
2018-03-04T18:48:41.516Z,24.73
2018-03-04T18:51:09.127Z,18.25
2018-03-04T18:53:36.691Z,19.92
2018-03-04T18:56:04.257Z,23.70
2018-03-04T18:58:33.577Z,21.80
2018-03-04T19:01:01.117Z,21.70
2018-03-04T19:03:28.605Z,21.10
2018-03-04T19:05:58.824Z,22.05
2018-03-04T19:08:30.254Z,16.75
2018-03-04T19:10:58.551Z,16.92
2018-03-04T19:13:26.093Z,15.75
2018-03-04T19:15:53.983Z,16.20
2018-03-04T19:18:22.527Z,14.48
2018-03-04T19:20:50.131Z,14.32
2018-03-04T19:23:17.622Z,13.32
2018-03-04T19:25:45.145Z,15.95
2018-03-04T19:28:13.546Z,17.58
2018-03-04T19:30:41.046Z,13.35
2018-03-04T19:33:08.644Z,11.55
2018-03-04T19:35:36.163Z,10.80
2018-03-04T19:38:03.662Z,10.70
2018-03-04T19:40:31.148Z,9.07
2018-03-04T19:42:58.700Z,10.35
2018-03-04T19:45:26.290Z,12.52
2018-03-04T19:47:53.836Z,13.95
2018-03-04T19:50:21.387Z,12.77
2018-03-04T19:52:48.997Z,11.57
2018-03-04T19:55:16.604Z,17.27
2018-03-04T19:57:44.221Z,11.88
2018-03-04T20:00:12.589Z,13.93
2018-03-04T20:02:40.261Z,11.75
2018-03-04T20:05:08.178Z,11.50
2018-03-04T20:07:36.151Z,16.20
2018-03-04T20:10:04.604Z,11.15
2018-03-04T20:12:32.238Z,11.25
2018-03-04T20:15:01.077Z,10.45
2018-03-04T20:17:29.977Z,9.88
2018-03-04T20:19:59.475Z,9.50
2018-03-04T20:22:28.775Z,10.77
2018-03-04T20:24:57.658Z,8.45
2018-03-04T20:27:27.614Z,9.95
2018-03-04T20:29:56.206Z,9.82
2018-03-04T20:32:24.623Z,9.05
2018-03-04T20:35:02.214Z,7.93
2018-03-04T20:37:48.347Z,8.73
2018-03-04T20:40:18.503Z,9.02
2018-03-04T20:42:49.292Z,9.23
2018-03-04T20:45:30.168Z,7.68
2018-03-04T20:48:04.845Z,8.23
2018-03-04T20:50:34.697Z,9.23
2018-03-04T20:53:05.177Z,8.27
2018-03-04T20:55:33.214Z,8.88
2018-03-04T20:58:01.677Z,7.68
2018-03-04T21:00:30.850Z,8.23
2018-03-04T21:03:00.865Z,10.48
2018-03-04T21:05:33.521Z,10.10
2018-03-04T21:08:04.550Z,11.43
2018-03-04T21:10:39.864Z,11.45
2018-03-04T21:13:07.964Z,14.55
2018-03-04T21:15:41.588Z,14.40
2018-03-04T21:18:10.829Z,12.70
2018-03-04T21:20:38.464Z,13.62
2018-03-04T21:23:06.018Z,14.55
2018-03-04T21:25:33.612Z,14.48
2018-03-04T21:28:01.749Z,17.42
2018-03-04T21:30:30.831Z,18.67
2018-03-04T21:33:00.975Z,20.95
2018-03-04T21:35:30.170Z,20.90
2018-03-04T21:37:58.044Z,24.50
2018-03-04T21:40:25.640Z,25.23
2018-03-04T21:42:53.458Z,21.42
2018-03-04T21:45:22.396Z,23.60
2018-03-04T21:47:49.919Z,23.65
2018-03-04T21:50:19.278Z,25.33
2018-03-04T21:52:49.502Z,23.87
2018-03-04T21:55:19.731Z,25.60
2018-03-04T21:57:48.239Z,23.02
2018-03-04T22:00:19.678Z,25.88
2018-03-04T22:02:48.408Z,25.48
2018-03-04T22:05:17.572Z,28.85
2018-03-04T22:07:49.522Z,24.00
2018-03-04T22:10:20.305Z,23.92
2018-03-04T22:12:56.142Z,26.20
2018-03-04T22:15:25.420Z,30.08
2018-03-04T22:17:54.742Z,25.62
2018-03-04T22:20:24.549Z,25.75
2018-03-04T22:22:53.890Z,30.55
2018-03-04T22:25:21.431Z,24.75
2018-03-04T22:27:49.018Z,24.02
2018-03-04T22:30:16.760Z,27.48
2018-03-04T22:32:46.959Z,25.02
2018-03-04T22:35:14.497Z,30.60
2018-03-04T22:37:42.962Z,28.80
2018-03-04T22:40:10.515Z,27.02
2018-03-04T22:42:38.090Z,28.58
2018-03-04T22:45:05.676Z,27.95
2018-03-04T22:47:33.338Z,28.15
2018-03-04T22:50:00.885Z,29.30
2018-03-04T22:52:28.453Z,28.60
2018-03-04T22:54:56.764Z,28.05
2018-03-04T22:57:24.449Z,26.58
2018-03-04T22:59:53.479Z,33.83
2018-03-04T23:02:21.256Z,30.60
2018-03-04T23:04:49.729Z,30.33
2018-03-04T23:07:18.112Z,30.48
2018-03-04T23:09:45.738Z,32.05
2018-03-04T23:12:14.469Z,34.60
2018-03-04T23:14:43.973Z,30.45
2018-03-04T23:17:13.490Z,34.60
2018-03-04T23:19:41.075Z,37.40
2018-03-04T23:22:08.572Z,36.20
2018-03-04T23:24:36.867Z,37.28
2018-03-04T23:27:06.022Z,32.90
2018-03-04T23:29:33.579Z,41.78
2018-03-04T23:32:02.131Z,34.92
2018-03-04T23:34:30.092Z,34.92
2018-03-04T23:36:57.672Z,36.05
2018-03-04T23:39:25.301Z,43.10
2018-03-04T23:41:53.654Z,36.97
2018-03-04T23:44:22.047Z,35.13
2018-03-04T23:46:49.622Z,36.95
2018-03-04T23:49:17.255Z,37.55
2018-03-04T23:51:44.790Z,36.55
2018-03-04T23:54:12.414Z,43.15
2018-03-04T23:56:40.012Z,37.00
2018-03-04T23:59:07.574Z,39.20
